首页
METAR-TAF:

METAR-TAF

机场 :

Vardø, 挪威

纬度: 70-21N, 经度: 031-03E, 海拔: 12米

当前天气观测

该预报发布于1小时和45分钟前的19:50 UTC
风速8节,风向北转西北
温度 5°C
湿度 81%
气压 1010 hPa
能见度10公里或以上
少量云层高于1500英尺
散云层高于2300英尺
多云层高于5500英尺

METAR: ENSS 191950Z 34008KT 9999 FEW015 SCT023 BKN055 05/02 Q1010 RMK WIND 500FT 35010KT

时间: 23:35 (21:35 UTC)


TAF: 丢失

超过4000个机场的气象观测和天气预报(METAR&TAF报告)。

可查询的气象台以黄色和红色小点在地图上表示。

将鼠标移到小点上方,可查看气象台名称。

然后点击查看天气观测和预报。

如需切换地图:点击带黑十字的绿色按钮放大地图;点击带横线的绿色按钮缩小地图;或者点击绿色箭头查看邻近地区的地图。


METAR-TAF: